Time;durP1;ratioP1;P1;durP2;ratioP2;P2;SDS_P1;SDS_P2;PMS_P1;PMS_P2;Temp;Humidity;BMP_temperature;BMP_pressure;BME280_temperature;BME280_humidity;BME280_pressure;Samples;Min_cycle;Max_cycle;Signal;HPM_P1;HPM_P2
2024/01/21 00:01:51;;;;;;;;;;;;;;;6.87;85.23;100721.56;4915454;29;20413;-77
2024/01/21 00:04:16;;;;;;;;;;;;;;;6.87;85.19;100726.84;4915556;29;19946;-80
2024/01/21 00:06:41;;;;;;;;;;;;;;;6.87;85.01;100723.34;4898651;29;19915;-80
2024/01/21 00:09:07;;;;;;;;;;;;;;;6.85;84.69;100731.25;4915368;29;19923;-79
2024/01/21 00:11:34;;;;;;;;;;;;;;;6.86;84.54;100730.38;4917684;29;19999;-88
2024/01/21 00:13:59;;;;;;;;;;;;;;;6.86;84.38;100724.22;4917910;29;20370;-80
2024/01/21 00:16:24;;;;;;;;;;;;;;;6.86;84.23;100732.13;4919075;29;19974;-79
2024/01/21 00:18:49;;;;;;;;;;;;;;;6.86;83.90;100726.84;4918841;29;19920;-78
2024/01/21 00:21:15;;;;;;;;;;;;;;;6.87;83.79;100736.50;4918867;29;19934;-82
2024/01/21 00:23:40;;;;;;;;;;;;;;;6.88;83.82;100728.59;4918916;29;20002;-80
2024/01/21 00:26:05;;;;;;;;;;;;;;;6.88;84.06;100722.47;4918982;29;19949;-77
2024/01/21 00:28:30;;;;;;;;;;;;;;;6.85;83.64;100726.00;4919054;29;19927;-78
2024/01/21 00:30:56;;;;;;;;;;;;;;;6.85;83.53;100722.50;4917588;29;19923;-85
2024/01/21 00:33:21;;;;;;;;;;;;;;;6.85;83.71;100719.84;4901998;29;19919;-78
2024/01/21 00:35:46;;;;;;;;;;;;;;;6.86;83.58;100718.94;4919018;29;19930;-78
2024/01/21 00:38:12;;;;;;;;;;;;;;;6.87;83.41;100720.69;4901561;29;20371;-77
2024/01/21 00:40:37;;;;;;;;;;;;;;;6.85;83.30;100717.22;4918753;29;20416;-79
2024/01/21 00:43:02;;;;;;;;;;;;;;;6.84;83.31;100711.06;4918883;29;19919;-77
2024/01/21 00:45:28;;;;;;;;;;;;;;;6.84;83.17;100702.28;4917474;29;19923;-77
2024/01/21 00:47:53;;;;;;;;;;;;;;;6.83;83.16;100711.06;4918192;29;19919;-76
2024/01/21 00:50:18;;;;;;;;;;;;;;;6.82;82.88;100704.94;4918524;29;19923;-76
2024/01/21 00:52:44;;;;;;;;;;;;;;;6.82;82.60;100702.31;4918767;29;19919;-78
2024/01/21 13:57:58;;;;;;;;;;;;;;;7.14;100.00;100566.59;5612526;23;20371;-80
2024/01/21 14:00:26;;;;;;;;;;;;;;;7.15;100.00;100575.34;4892989;29;19930;-83
2024/01/21 14:02:54;;;;;;;;;;;;;;;7.15;100.00;100570.09;4895596;29;19930;-80
2024/01/21 14:05:19;;;;;;;;;;;;;;;7.15;100.00;100580.63;4897374;29;19930;-81
2024/01/21 14:07:45;;;;;;;;;;;;;;;7.14;100.00;100573.63;4897798;29;19927;-85
2024/01/21 14:10:10;;;;;;;;;;;;;;;7.16;100.00;100569.19;4897729;29;19928;-80
2024/01/21 14:12:36;;;;;;;;;;;;;;;7.15;100.00;100564.81;4897355;29;20048;-79
2024/01/21 14:15:01;;;;;;;;;;;;;;;7.15;100.00;100565.72;4896532;29;19923;-84
2024/01/21 14:17:28;;;;;;;;;;;;;;;7.16;100.00;100561.28;4897250;29;20383;-81
2024/01/21 14:19:53;;;;;;;;;;;;;;;7.18;100.00;100556.84;4897506;29;19958;-80
2024/01/21 14:22:18;;;;;;;;;;;;;;;7.16;100.00;100566.56;4896393;29;20335;-79
2024/01/21 14:24:45;;;;;;;;;;;;;;;7.16;100.00;100556.03;4898346;29;19939;-83
2024/01/21 14:27:10;;;;;;;;;;;;;;;7.17;100.00;100555.16;4896908;29;19924;-82
2024/01/21 14:29:38;;;;;;;;;;;;;;;7.18;100.00;100560.38;4896616;29;19931;-81
2024/01/21 14:32:04;;;;;;;;;;;;;;;7.18;100.00;100549.84;4898287;29;20390;-81
2024/01/21 14:34:30;;;;;;;;;;;;;;;7.18;100.00;100559.50;4897754;29;19923;-80
2024/01/21 14:36:55;;;;;;;;;;;;;;;7.18;100.00;100554.22;4898186;29;20022;-82
2024/01/21 14:39:20;;;;;;;;;;;;;;;7.20;100.00;100558.59;4896556;29;19935;-85
2024/01/21 14:41:45;;;;;;;;;;;;;;;7.22;100.00;100566.47;4896695;29;19966;-79
2024/01/21 14:44:11;;;;;;;;;;;;;;;7.20;100.00;100569.13;4895301;29;19988;-82
2024/01/21 14:46:36;;;;;;;;;;;;;;;7.20;100.00;100569.13;4896582;29;19919;-84
2024/01/21 14:49:01;;;;;;;;;;;;;;;7.21;100.00;100568.25;4896656;29;19927;-78
2024/01/21 14:51:27;;;;;;;;;;;;;;;7.22;100.00;100574.38;4897027;29;19916;-81
2024/01/21 14:53:52;;;;;;;;;;;;;;;7.21;100.00;100575.25;4896353;29;19927;-82
2024/01/21 14:56:17;;;;;;;;;;;;;;;7.20;100.00;100577.03;4894490;29;19923;-85
2024/01/21 14:58:42;;;;;;;;;;;;;;;7.23;100.00;100584.03;4901755;29;19973;-85
2024/01/21 15:01:08;;;;;;;;;;;;;;;7.23;100.00;100594.59;4915783;29;19923;-88
2024/01/21 15:03:33;;;;;;;;;;;;;;;7.22;100.00;100577.88;4916724;29;19994;-79
2024/01/21 15:05:58;;;;;;;;;;;;;;;7.23;100.00;100584.03;4915814;29;19922;-78
2024/01/21 15:08:23;;;;;;;;;;;;;;;7.23;100.00;100587.53;4898542;29;19930;-83
2024/01/21 15:10:49;;;;;;;;;;;;;;;7.25;100.00;100582.25;4913331;29;19915;-79
2024/01/21 15:13:21;;;;;;;;;;;;;;;7.25;100.00;100582.25;4914514;29;19950;-82
2024/01/21 15:15:47;;;;;;;;;;;;;;;7.24;100.00;100576.09;4916338;29;19930;-79
2024/01/21 15:18:12;;;;;;;;;;;;;;;7.24;100.00;100581.38;4916117;29;19923;-81
2024/01/21 15:20:37;;;;;;;;;;;;;;;7.27;100.00;100580.44;4914143;29;19924;-81
2024/01/21 15:23:03;;;;;;;;;;;;;;;7.28;100.00;100576.91;4915807;29;20430;-85
2024/01/21 15:25:28;;;;;;;;;;;;;;;7.26;100.00;100573.44;4915985;29;20379;-82
2024/01/21 15:27:57;;;;;;;;;;;;;;;7.26;100.00;100581.34;4897087;29;19923;-81
2024/01/21 15:30:22;;;;;;;;;;;;;;;7.27;100.00;100583.97;4913925;29;19923;-82
2024/01/21 15:32:48;;;;;;;;;;;;;;;7.26;100.00;100590.13;4913696;29;19979;-83
2024/01/21 15:35:13;;;;;;;;;;;;;;;7.25;100.00;100598.06;4914641;29;19958;-80
2024/01/21 15:37:38;;;;;;;;;;;;;;;7.27;100.00;100588.34;4915688;29;20300;-78
2024/01/21 15:40:04;;;;;;;;;;;;;;;7.25;100.00;100579.59;4914349;29;19927;-81
2024/01/21 15:42:30;;;;;;;;;;;;;;;7.27;100.00;100581.34;4912997;29;19979;-84
2024/01/21 15:44:55;;;;;;;;;;;;;;;7.27;100.00;100580.44;4914941;29;19923;-87
2024/01/21 15:47:20;;;;;;;;;;;;;;;7.26;100.00;100590.13;4915594;29;20306;-80
2024/01/21 15:49:46;;;;;;;;;;;;;;;7.26;100.00;100592.75;4913787;29;19942;-80
2024/01/21 15:52:12;;;;;;;;;;;;;;;7.30;100.00;100596.22;4912667;29;19923;-78
2024/01/21 15:54:37;;;;;;;;;;;;;;;7.30;100.00;100592.72;4913531;29;19959;-78
2024/01/21 15:57:02;;;;;;;;;;;;;;;7.28;100.00;100592.72;4914330;29;19919;-80
2024/01/21 15:59:28;;;;;;;;;;;;;;;7.29;100.00;100589.19;4914533;29;19987;-83
2024/01/21 16:01:53;;;;;;;;;;;;;;;7.30;100.00;100593.56;4913922;29;20365;-83
2024/01/21 16:04:18;;;;;;;;;;;;;;;7.32;100.00;100590.91;4901164;29;19950;-82
2024/01/21 16:06:43;;;;;;;;;;;;;;;7.30;100.00;100593.56;4914285;29;19927;-81
2024/01/21 16:09:09;;;;;;;;;;;;;;;7.32;100.00;100593.53;4915286;29;19919;-81
2024/01/21 16:11:34;;;;;;;;;;;;;;;7.32;100.00;100581.22;4913607;29;20026;-80
2024/01/21 16:13:59;;;;;;;;;;;;;;;7.32;100.00;100590.91;4914047;29;19919;-79
2024/01/21 16:16:25;;;;;;;;;;;;;;;7.29;100.00;100583.91;4910995;29;19931;-85
2024/01/21 16:18:51;;;;;;;;;;;;;;;7.30;100.00;100583.03;4912289;29;19995;-80
2024/01/21 16:21:16;;;;;;;;;;;;;;;7.31;100.00;100576.88;4898514;29;19927;-87
2024/01/21 16:23:42;;;;;;;;;;;;;;;7.32;100.00;100577.72;4915461;29;19925;-85
2024/01/21 16:26:07;;;;;;;;;;;;;;;7.33;100.00;100582.97;4913499;29;20355;-79
2024/01/21 16:28:32;;;;;;;;;;;;;;;7.32;100.00;100580.38;4914168;29;20015;-81
2024/01/21 16:30:58;;;;;;;;;;;;;;;7.33;100.00;100574.22;4913614;29;19927;-81
2024/01/21 16:33:23;;;;;;;;;;;;;;;7.33;100.00;100579.47;4897407;29;19927;-87
2024/01/21 16:35:49;;;;;;;;;;;;;;;7.33;100.00;100582.97;4914507;29;19971;-85
2024/01/21 16:38:15;;;;;;;;;;;;;;;7.33;100.00;100585.63;4915553;29;19923;-83
2024/01/21 16:40:40;;;;;;;;;;;;;;;7.33;100.00;100590.88;4915338;29;19978;-82
2024/01/21 16:43:06;;;;;;;;;;;;;;;7.36;100.00;100595.25;4911968;29;19924;-84
2024/01/21 16:45:32;;;;;;;;;;;;;;;7.35;100.00;100599.63;4913330;29;20014;-83
2024/01/21 16:47:58;;;;;;;;;;;;;;;7.34;100.00;100595.28;4882957;29;19927;-80
2024/01/21 16:50:23;;;;;;;;;;;;;;;7.36;100.00;100597.88;4915137;29;19923;-82
2024/01/21 16:52:50;;;;;;;;;;;;;;;7.36;100.00;100590.84;4914118;29;20009;-79
2024/01/21 16:55:16;;;;;;;;;;;;;;;7.36;100.00;100588.19;4917895;29;19923;-81
2024/01/21 16:57:41;;;;;;;;;;;;;;;7.36;100.00;100595.25;4916734;29;19923;-83
2024/01/21 17:00:27;;;;;;;;;;;;;;;7.36;100.00;100585.56;4916666;29;19978;-81
2024/01/21 17:02:54;;;;;;;;;;;;;;;7.38;100.00;100588.16;4916303;29;19926;-88
2024/01/21 17:05:20;;;;;;;;;;;;;;;7.37;100.00;100583.78;4918315;29;19923;-78
2024/01/21 17:07:45;;;;;;;;;;;;;;;7.38;100.00;100591.66;4918533;29;19923;-79
2024/01/21 17:10:36;;;;;;;;;;;;;;;7.37;100.00;100587.31;4915514;29;19931;-79
2024/01/21 17:13:02;;;;;;;;;;;;;;;7.38;100.00;100590.81;4886880;29;20264;-88
2024/01/21 17:15:27;;;;;;;;;;;;;;;7.39;100.00;100596.06;4900537;29;20065;-80
2024/01/21 17:17:56;;;;;;;;;;;;;;;7.38;100.00;100591.66;4916152;29;19927;-81
2024/01/21 17:20:23;;;;;;;;;;;;;;;7.39;100.00;100584.66;4913620;29;19927;-83
2024/01/21 17:22:48;;;;;;;;;;;;;;;7.39;100.00;100582.88;4918397;29;20015;-85
2024/01/21 17:25:13;;;;;;;;;;;;;;;7.40;100.00;100587.25;4918200;29;19941;-83
2024/01/21 17:27:38;;;;;;;;;;;;;;;7.40;100.00;100591.66;4914767;29;20293;-78
2024/01/21 17:30:05;;;;;;;;;;;;;;;7.40;100.00;100592.53;4916919;29;19982;-82
2024/01/21 17:32:30;;;;;;;;;;;;;;;7.43;100.00;100597.72;4917368;29;19966;-83
2024/01/21 17:34:55;;;;;;;;;;;;;;;7.40;100.00;100584.63;4917099;29;19962;-86
2024/01/21 17:37:21;;;;;;;;;;;;;;;7.42;100.00;100585.47;4917863;29;19951;-82
2024/01/21 17:39:46;;;;;;;;;;;;;;;7.41;100.00;100588.97;4915371;29;20240;-82
2024/01/21 17:42:11;;;;;;;;;;;;;;;7.42;100.00;100584.59;4913654;29;19926;-80
2024/01/21 17:44:36;;;;;;;;;;;;;;;7.41;100.00;100578.44;4917627;29;19920;-81
2024/01/21 17:47:02;;;;;;;;;;;;;;;7.43;100.00;100575.78;4916781;29;19979;-78
2024/01/21 17:49:29;;;;;;;;;;;;;;;7.44;100.00;100580.16;4915925;29;20018;-79
2024/01/21 17:51:54;;;;;;;;;;;;;;;7.43;100.00;100570.50;4914592;29;19979;-82
2024/01/21 17:54:19;;;;;;;;;;;;;;;7.45;100.00;100574.88;4915489;29;19955;-83
2024/01/21 17:56:45;;;;;;;;;;;;;;;7.43;100.00;100562.59;4898168;29;19923;-78
2024/01/21 17:59:10;;;;;;;;;;;;;;;7.43;100.00;100565.22;4915524;29;20434;-80
2024/01/21 18:01:35;;;;;;;;;;;;;;;7.43;100.00;100567.88;4914959;29;19923;-77
2024/01/21 18:04:01;;;;;;;;;;;;;;;7.45;100.00;100568.69;4915205;29;20367;-86
2024/01/21 18:06:28;;;;;;;;;;;;;;;7.45;100.00;100564.31;4913272;29;19927;-81
2024/01/21 18:08:54;;;;;;;;;;;;;;;7.45;100.00;100556.41;4915730;29;19919;-79
2024/01/21 18:11:19;;;;;;;;;;;;;;;7.45;100.00;100566.97;4915623;29;19931;-79
2024/01/21 18:13:45;;;;;;;;;;;;;;;7.46;100.00;100566.03;4915154;29;19923;-82
2024/01/21 18:16:12;;;;;;;;;;;;;;;7.48;100.00;100567.78;4916340;29;19919;-81
2024/01/21 18:18:37;;;;;;;;;;;;;;;7.48;100.00;100573.06;4915817;29;19919;-80
2024/01/21 18:21:02;;;;;;;;;;;;;;;7.48;100.00;100557.25;4915452;29;20382;-80
2024/01/21 18:23:28;;;;;;;;;;;;;;;7.48;100.00;100551.97;4914691;29;19930;-77
2024/01/21 18:25:54;;;;;;;;;;;;;;;7.51;100.00;100551.91;4914833;29;19930;-77
2024/01/21 18:28:19;;;;;;;;;;;;;;;7.50;100.00;100552.78;4915109;29;20042;-78
2024/01/21 18:30:44;;;;;;;;;;;;;;;7.50;100.00;100551.06;4914335;29;20454;-78
2024/01/21 18:33:10;;;;;;;;;;;;;;;7.50;100.00;100544.88;4916280;29;20298;-85
2024/01/21 18:35:35;;;;;;;;;;;;;;;7.53;100.00;100551.00;4914724;29;20004;-78
2024/01/21 18:38:00;;;;;;;;;;;;;;;7.53;100.00;100555.38;4916427;29;19923;-82
2024/01/21 18:40:26;;;;;;;;;;;;;;;7.52;100.00;100543.97;4914441;29;19924;-80
2024/01/21 18:42:51;;;;;;;;;;;;;;;7.52;100.00;100553.66;4914061;29;19927;-82
2024/01/21 18:45:16;;;;;;;;;;;;;;;7.54;100.00;100562.41;4915313;29;19927;-81
2024/01/21 18:47:41;;;;;;;;;;;;;;;7.54;100.00;100559.78;4915870;29;19919;-88
2024/01/21 18:50:07;;;;;;;;;;;;;;;7.54;100.00;100557.13;4916377;29;19959;-80
2024/01/21 18:52:32;;;;;;;;;;;;;;;7.56;100.00;100542.13;4914015;29;19923;-80
2024/01/21 18:54:57;;;;;;;;;;;;;;;7.56;100.00;100540.41;4914287;29;19999;-85
2024/01/21 18:57:23;;;;;;;;;;;;;;;7.57;100.00;100525.44;4913245;29;19923;-80
2024/01/21 18:59:49;;;;;;;;;;;;;;;7.57;100.00;100536.84;4915624;29;19927;-79
2024/01/21 19:02:16;;;;;;;;;;;;;;;7.56;100.00;100528.94;4914168;29;19923;-78
2024/01/21 19:04:42;;;;;;;;;;;;;;;7.58;100.00;100516.63;4915470;29;19931;-77
2024/01/21 19:07:08;;;;;;;;;;;;;;;7.58;100.00;100514.00;4915097;29;19926;-78
2024/01/21 19:09:34;;;;;;;;;;;;;;;7.59;100.00;100506.03;4915608;29;20037;-77
2024/01/21 19:11:59;;;;;;;;;;;;;;;7.58;100.00;100503.44;4914585;29;19927;-77
2024/01/21 19:14:24;;;;;;;;;;;;;;;7.57;100.00;100494.63;4915407;29;20418;-78
2024/01/21 19:16:49;;;;;;;;;;;;;;;7.59;100.00;100490.19;4915443;29;19923;-79
2024/01/21 19:19:15;;;;;;;;;;;;;;;7.60;100.00;100491.09;4915603;29;19923;-79
2024/01/21 19:21:40;;;;;;;;;;;;;;;7.63;100.00;100493.66;4915396;29;19923;-79
2024/01/21 19:24:06;;;;;;;;;;;;;;;7.61;100.00;100487.53;4915320;29;20386;-80
2024/01/21 19:26:32;;;;;;;;;;;;;;;7.61;100.00;100483.16;4916042;29;19923;-78
2024/01/21 19:28:58;;;;;;;;;;;;;;;7.62;100.00;100473.47;4914747;29;19926;-79
2024/01/21 19:31:24;;;;;;;;;;;;;;;7.62;100.00;100460.28;4915037;29;19919;-80
2024/01/21 19:33:51;;;;;;;;;;;;;;;7.63;100.00;100469.94;4915505;29;19919;-79
2024/01/21 19:36:16;;;;;;;;;;;;;;;7.67;100.00;100470.72;4915436;29;19926;-83
2024/01/21 19:38:41;;;;;;;;;;;;;;;7.68;100.00;100473.34;4899109;29;19919;-80
2024/01/21 19:41:07;;;;;;;;;;;;;;;7.80;100.00;100474.84;4914931;29;20347;-79
2024/01/21 19:43:32;;;;;;;;;;;;;;;7.75;100.00;100482.84;4914148;29;20021;-81
2024/01/21 19:45:57;;;;;;;;;;;;;;;7.75;100.00;100474.94;4914908;29;19915;-79
2024/01/21 19:48:22;;;;;;;;;;;;;;;7.77;100.00;100481.06;4915133;29;19968;-79
2024/01/21 19:50:48;;;;;;;;;;;;;;;7.79;100.00;100476.63;4915063;29;19923;-80
2024/01/21 19:53:13;;;;;;;;;;;;;;;7.82;100.00;100473.94;4915057;29;19946;-80
2024/01/21 19:55:39;;;;;;;;;;;;;;;7.84;100.00;100476.53;4915003;29;19919;-81
2024/01/21 19:58:05;;;;;;;;;;;;;;;7.87;100.00;100486.16;4913626;29;19919;-78
2024/01/21 20:00:30;;;;;;;;;;;;;;;7.88;100.00;100482.59;4915044;29;20395;-81
2024/01/21 20:02:55;;;;;;;;;;;;;;;7.91;100.00;100493.09;4915059;29;19923;-79
2024/01/21 20:05:20;;;;;;;;;;;;;;;7.91;100.00;100493.97;4915025;29;19990;-80
2024/01/21 20:07:46;;;;;;;;;;;;;;;7.94;100.00;100485.13;4914748;29;19987;-81
2024/01/21 20:10:11;;;;;;;;;;;;;;;7.93;100.00;100476.34;4915118;29;19919;-79
2024/01/21 20:12:36;;;;;;;;;;;;;;;7.95;100.00;100477.19;4913696;29;19924;-81
2024/01/21 20:15:02;;;;;;;;;;;;;;;7.94;100.00;100478.06;4915019;29;19924;-80
2024/01/21 20:17:27;;;;;;;;;;;;;;;7.94;100.00;100471.94;4914780;29;19920;-82
2024/01/21 20:19:52;;;;;;;;;;;;;;;7.92;100.00;100469.31;4914812;29;19999;-81
2024/01/21 20:22:18;;;;;;;;;;;;;;;7.92;100.00;100471.09;4897773;29;19920;-77
2024/01/21 20:24:43;;;;;;;;;;;;;;;7.91;100.00;100466.72;4895161;29;19923;-77
2024/01/21 20:27:09;;;;;;;;;;;;;;;7.89;100.00;100473.81;4913668;29;20401;-78
2024/01/21 20:29:35;;;;;;;;;;;;;;;7.86;100.00;100485.28;4918389;29;19974;-78
2024/01/21 20:32:01;;;;;;;;;;;;;;;7.82;100.00;100484.47;4901485;29;19990;-77
2024/01/21 20:34:26;;;;;;;;;;;;;;;7.81;100.00;100482.72;4918316;29;20375;-77
2024/01/21 20:36:51;;;;;;;;;;;;;;;7.78;100.00;100474.00;4918130;29;19975;-78
2024/01/21 20:39:17;;;;;;;;;;;;;;;7.75;100.00;100469.66;4918522;29;20332;-78
2024/01/21 20:41:42;;;;;;;;;;;;;;;7.69;100.00;100461.91;4917024;29;19946;-77
2024/01/21 20:44:09;;;;;;;;;;;;;;;7.68;100.00;100460.16;4918277;29;19925;-79
2024/01/21 20:46:34;;;;;;;;;;;;;;;7.63;100.00;100451.47;4917363;29;19974;-77
2024/01/21 20:49:00;;;;;;;;;;;;;;;7.58;100.00;100448.91;4918264;29;19923;-77
2024/01/21 20:51:25;;;;;;;;;;;;;;;7.55;100.00;100445.47;4918129;29;19926;-76
2024/01/21 20:53:50;;;;;;;;;;;;;;;7.52;100.00;100442.91;4917927;29;19920;-77
2024/01/21 20:56:16;;;;;;;;;;;;;;;7.44;100.00;100443.91;4918138;29;19920;-76
2024/01/21 20:58:41;;;;;;;;;;;;;;;7.37;100.00;100434.41;4916611;29;20383;-77
2024/01/21 21:01:06;;;;;;;;;;;;;;;7.35;100.00;100428.25;4917705;29;19923;-77
2024/01/21 21:03:32;;;;;;;;;;;;;;;7.30;100.00;100426.63;4917873;29;19920;-75
2024/01/21 21:05:57;;;;;;;;;;;;;;;7.25;100.00;100417.03;4917859;29;20322;-77
2024/01/21 21:08:22;;;;;;;;;;;;;;;7.24;100.00;100424.97;4917706;29;19936;-77
2024/01/21 21:10:48;;;;;;;;;;;;;;;7.24;100.00;100417.06;4917601;29;19923;-80
2024/01/21 21:13:14;;;;;;;;;;;;;;;7.23;100.00;100408.28;4899702;29;20291;-76
2024/01/21 21:15:39;;;;;;;;;;;;;;;7.22;100.00;100409.19;4900428;29;19961;-78
2024/01/21 21:18:05;;;;;;;;;;;;;;;7.21;100.00;100406.56;4917448;29;19954;-78
2024/01/21 21:20:30;;;;;;;;;;;;;;;7.18;100.00;100404.00;4917564;29;20351;-77
2024/01/21 21:22:56;;;;;;;;;;;;;;;7.19;100.00;100413.66;4917525;29;19920;-78
2024/01/21 21:25:21;;;;;;;;;;;;;;;7.19;100.00;100401.31;4917626;29;19923;-77
2024/01/21 21:27:46;;;;;;;;;;;;;;;7.19;100.00;100395.19;4916168;29;20434;-77
2024/01/21 21:30:12;;;;;;;;;;;;;;;7.20;100.00;100404.84;4917498;29;20027;-78
2024/01/21 21:32:40;;;;;;;;;;;;;;;7.20;100.00;100387.25;4916632;29;19927;-78
2024/01/21 21:35:06;;;;;;;;;;;;;;;7.23;100.00;100373.16;4900351;29;19919;-77
2024/01/21 21:37:31;;;;;;;;;;;;;;;7.25;100.00;100360.81;4917392;29;19977;-77
2024/01/21 21:39:57;;;;;;;;;;;;;;;7.27;100.00;100362.53;4916070;29;19919;-78
2024/01/21 21:42:22;;;;;;;;;;;;;;;7.30;100.00;100358.94;4916326;29;20299;-76
2024/01/21 21:44:48;;;;;;;;;;;;;;;7.30;100.00;100352.81;4900030;29;19919;-77
2024/01/21 21:47:14;;;;;;;;;;;;;;;7.28;100.00;100351.06;4917121;29;19926;-77
2024/01/21 21:49:40;;;;;;;;;;;;;;;7.35;100.00;100349.16;4900131;29;19923;-79
2024/01/21 21:52:05;;;;;;;;;;;;;;;7.37;100.00;100341.22;4917045;29;19919;-79
2024/01/21 21:54:30;;;;;;;;;;;;;;;7.33;100.00;100347.47;4917095;29;20326;-79
2024/01/21 21:56:56;;;;;;;;;;;;;;;7.32;100.00;100346.59;4915774;29;19927;-79
2024/01/21 21:59:21;;;;;;;;;;;;;;;7.36;100.00;100342.16;4916980;29;19934;-78
2024/01/21 22:01:48;;;;;;;;;;;;;;;7.46;100.00;100334.00;4916594;29;19919;-78
2024/01/21 22:04:13;;;;;;;;;;;;;;;7.52;100.00;100334.78;4916808;29;20363;-77
2024/01/21 22:06:38;;;;;;;;;;;;;;;7.59;100.00;100323.19;4916779;29;19919;-78
2024/01/21 22:09:07;;;;;;;;;;;;;;;7.68;100.00;100333.53;4916659;29;20363;-78
2024/01/21 22:11:32;;;;;;;;;;;;;;;7.66;100.00;100332.72;4916187;29;19927;-78
2024/01/21 22:13:57;;;;;;;;;;;;;;;7.74;100.00;100328.13;4915233;29;20287;-79
2024/01/21 22:16:23;;;;;;;;;;;;;;;7.70;100.00;100321.16;4916605;29;19966;-78
2024/01/21 22:18:48;;;;;;;;;;;;;;;7.73;100.00;100321.09;4899422;29;19925;-79
2024/01/21 22:21:19;;;;;;;;;;;;;;;7.77;100.00;100313.97;4916532;29;20021;-79
